MAUNA LOA HI US current weather conditions

sailwx.info

Wind from 347 at 1 knots gusting 5

Air temperature 12.2° C
Dewpoint 12.1° C

Last reported at 2016-May-26 07:34 UTC.
Time now 2016-May-26 08:45 UTC

Location: N 19°28' W 155°22'.
View on Google Maps.

See reports from other nearby stations

  
Tides and Currents Weather Stations Pressure Air Temp Water Temp Dewpoint Dewpoint Depression Visibility Wind Speed Wind Dir Waves Ship Positions
date/time (UTC)wind fromknots sea level pressurealtimeterstation pressurevisibilityair tempwater tempwave heightnotes
2016-May-26 07:34 347 1 gusting 5 12.2
2016-May-26 06:34 035 2 gusting 4 12.2
2016-May-26 05:34 025 1 gusting 2 12.8
2016-May-26 04:34 334 1 gusting 3 12.8
2016-May-26 03:34 016 2 gusting 6 13.3
2016-May-26 02:34 066 4 gusting 10 13.9
2016-May-26 01:34 052 3 gusting 7 15.0
2016-May-26 00:34 089 1 gusting 7 15.0
2016-May-25 23:34 075 3 gusting 9 17.2
2016-May-25 22:34 056 3 gusting 7 16.7
2016-May-25 21:34 027 1 gusting 6 16.7
2016-May-25 20:34 171 0 gusting 5 15.0
2016-May-25 19:34 125 2 gusting 6 13.9
2016-May-25 18:34 102 2 gusting 5 15.6
2016-May-25 17:34 229 0 gusting 3 13.9
2016-May-25 16:34 12.2
2016-May-25 15:34 340 0 gusting 4 12.2
2016-May-25 14:34 333 1 gusting 3 12.2
2016-May-25 13:34 11.7
2016-May-25 12:34 315 2 gusting 4 12.2
2016-May-25 11:34 006 1 gusting 4 11.7
2016-May-25 10:34 323 2 gusting 3 12.2
2016-May-25 09:34 003 0 gusting 4 12.2
2016-May-25 08:34 354 2 gusting 6 12.2
2016-May-25 07:34 014 5 gusting 8 12.8
2016-May-25 06:34 003 2 gusting 7 12.8
2016-May-25 05:34 027 5 gusting 11 13.3
2016-May-25 04:34 338 5 gusting 13 13.3
2016-May-25 03:34 018 8 gusting 15 15.0
2016-May-25 02:34 028 8 gusting 17 18.3
2016-May-25 01:34 025 10 gusting 19 19.4
2016-May-25 00:34 027 8 gusting 16 21.7
2016-May-24 23:34 036 6 gusting 16 22.8
2016-May-24 22:34 048 6 gusting 14 21.1
2016-May-24 21:34 022 7 gusting 15 21.7
2016-May-24 20:34 035 8 gusting 14 20.0
2016-May-24 19:34 027 7 gusting 13 16.7
2016-May-24 18:34 038 4 gusting 12 15.6
2016-May-24 17:34 069 1 gusting 6 14.4
2016-May-24 16:34 019 3 gusting 7 12.8
2016-May-24 15:34 317 2 gusting 3 11.7
2016-May-24 14:34 311 2 gusting 6 11.1
2016-May-24 13:34 295 3 gusting 7 11.1
2016-May-24 12:34 325 4 gusting 7 10.0
2016-May-24 11:34 318 5 gusting 9 10.0
2016-May-24 10:34 335 4 gusting 8 10.6
2016-May-24 09:34 333 3 gusting 8 10.6
2016-May-24 08:34 324 6 gusting 11 11.7